sensor_id;sensor_type;location;lat;lon;timestamp;pressure;altitude;pressure_sealevel;temperature
69552;BMP280;63774;45.292;11.784;2023-06-26T00:02:17;101809.60;;;27.14
69552;BMP280;63774;45.292;11.784;2023-06-26T00:04:43;101811.72;;;27.15
69552;BMP280;63774;45.292;11.784;2023-06-26T00:07:10;101808.44;;;27.17
69552;BMP280;63774;45.292;11.784;2023-06-26T00:09:36;101808.45;;;27.15
69552;BMP280;63774;45.292;11.784;2023-06-26T00:12:01;101805.99;;;27.10
69552;BMP280;63774;45.292;11.784;2023-06-26T00:14:27;101810.03;;;27.11
69552;BMP280;63774;45.292;11.784;2023-06-26T00:16:52;101807.94;;;27.12
69552;BMP280;63774;45.292;11.784;2023-06-26T00:19:18;101808.30;;;27.14
69552;BMP280;63774;45.292;11.784;2023-06-26T00:21:43;101809.40;;;27.12
69552;BMP280;63774;45.292;11.784;2023-06-26T00:24:16;101809.15;;;27.08
69552;BMP280;63774;45.292;11.784;2023-06-26T00:26:42;101805.16;;;27.06
69552;BMP280;63774;45.292;11.784;2023-06-26T00:29:08;101806.89;;;27.03
69552;BMP280;63774;45.292;11.784;2023-06-26T00:31:33;101807.05;;;27.02
69552;BMP280;63774;45.292;11.784;2023-06-26T00:34:00;101805.67;;;26.97
69552;BMP280;63774;45.292;11.784;2023-06-26T00:36:26;101807.34;;;26.98
69552;BMP280;63774;45.292;11.784;2023-06-26T00:38:52;101806.81;;;26.99
69552;BMP280;63774;45.292;11.784;2023-06-26T00:41:19;101810.30;;;26.97
69552;BMP280;63774;45.292;11.784;2023-06-26T00:43:45;101808.72;;;26.95
69552;BMP280;63774;45.292;11.784;2023-06-26T00:46:12;101814.23;;;26.91
69552;BMP280;63774;45.292;11.784;2023-06-26T00:48:39;101820.66;;;26.91
69552;BMP280;63774;45.292;11.784;2023-06-26T00:51:07;101819.58;;;26.88
69552;BMP280;63774;45.292;11.784;2023-06-26T00:53:33;101821.31;;;26.86
69552;BMP280;63774;45.292;11.784;2023-06-26T00:55:59;101822.70;;;26.84
69552;BMP280;63774;45.292;11.784;2023-06-26T00:58:25;101822.25;;;26.80
69552;BMP280;63774;45.292;11.784;2023-06-26T01:00:51;101822.94;;;26.80
69552;BMP280;63774;45.292;11.784;2023-06-26T01:03:18;101820.06;;;26.78
69552;BMP280;63774;45.292;11.784;2023-06-26T01:05:44;101821.58;;;26.78
69552;BMP280;63774;45.292;11.784;2023-06-26T01:08:13;101820.66;;;26.77
69552;BMP280;63774;45.292;11.784;2023-06-26T01:10:40;101820.73;;;26.75
69552;BMP280;63774;45.292;11.784;2023-06-26T01:13:05;101822.92;;;26.71
69552;BMP280;63774;45.292;11.784;2023-06-26T01:15:31;101821.37;;;26.71
69552;BMP280;63774;45.292;11.784;2023-06-26T01:17:58;101824.44;;;26.69
69552;BMP280;63774;45.292;11.784;2023-06-26T01:20:25;101825.29;;;26.65
69552;BMP280;63774;45.292;11.784;2023-06-26T01:23:21;101822.05;;;26.63
69552;BMP280;63774;45.292;11.784;2023-06-26T01:26:13;101819.55;;;26.58
69552;BMP280;63774;45.292;11.784;2023-06-26T01:28:42;101815.32;;;26.54
69552;BMP280;63774;45.292;11.784;2023-06-26T01:31:08;101812.30;;;26.54
69552;BMP280;63774;45.292;11.784;2023-06-26T01:33:36;101808.45;;;26.49
69552;BMP280;63774;45.292;11.784;2023-06-26T01:36:02;101810.05;;;26.47
69552;BMP280;63774;45.292;11.784;2023-06-26T01:38:28;101812.91;;;26.46
69552;BMP280;63774;45.292;11.784;2023-06-26T01:40:54;101811.23;;;26.46
69552;BMP280;63774;45.292;11.784;2023-06-26T01:45:54;101811.34;;;26.42
69552;BMP280;63774;45.292;11.784;2023-06-26T01:48:24;101809.92;;;26.41
69552;BMP280;63774;45.292;11.784;2023-06-26T01:50:53;101805.72;;;26.38
69552;BMP280;63774;45.292;11.784;2023-06-26T01:53:21;101810.85;;;26.37
69552;BMP280;63774;45.292;11.784;2023-06-26T01:56:00;101809.73;;;26.37
69552;BMP280;63774;45.292;11.784;2023-06-26T01:58:29;101811.13;;;26.35
69552;BMP280;63774;45.292;11.784;2023-06-26T02:00:54;101814.02;;;26.34
69552;BMP280;63774;45.292;11.784;2023-06-26T02:03:20;101812.77;;;26.32
69552;BMP280;63774;45.292;11.784;2023-06-26T02:05:45;101809.77;;;26.31
69552;BMP280;63774;45.292;11.784;2023-06-26T02:08:14;101810.70;;;26.29
69552;BMP280;63774;45.292;11.784;2023-06-26T02:10:39;101806.88;;;26.28
69552;BMP280;63774;45.292;11.784;2023-06-26T02:13:05;101807.52;;;26.25
69552;BMP280;63774;45.292;11.784;2023-06-26T02:15:30;101811.30;;;26.26
69552;BMP280;63774;45.292;11.784;2023-06-26T02:17:56;101811.48;;;26.23
69552;BMP280;63774;45.292;11.784;2023-06-26T02:20:21;101813.91;;;26.22
69552;BMP280;63774;45.292;11.784;2023-06-26T02:22:46;101813.42;;;26.22
69552;BMP280;63774;45.292;11.784;2023-06-26T02:25:12;101813.35;;;26.21
69552;BMP280;63774;45.292;11.784;2023-06-26T02:27:38;101818.34;;;26.23
69552;BMP280;63774;45.292;11.784;2023-06-26T02:30:04;101814.32;;;26.22
69552;BMP280;63774;45.292;11.784;2023-06-26T02:32:29;101814.59;;;26.22
69552;BMP280;63774;45.292;11.784;2023-06-26T02:34:55;101812.20;;;26.19
69552;BMP280;63774;45.292;11.784;2023-06-26T02:37:20;101818.46;;;26.20
69552;BMP280;63774;45.292;11.784;2023-06-26T02:39:46;101818.01;;;26.18
69552;BMP280;63774;45.292;11.784;2023-06-26T02:42:11;101819.73;;;26.18
69552;BMP280;63774;45.292;11.784;2023-06-26T02:44:37;101822.76;;;26.19
69552;BMP280;63774;45.292;11.784;2023-06-26T02:47:02;101822.60;;;26.16
69552;BMP280;63774;45.292;11.784;2023-06-26T02:49:28;101822.12;;;26.15
69552;BMP280;63774;45.292;11.784;2023-06-26T02:51:53;101824.16;;;26.12
69552;BMP280;63774;45.292;11.784;2023-06-26T02:54:19;101832.67;;;26.09
69552;BMP280;63774;45.292;11.784;2023-06-26T02:56:44;101831.73;;;26.06
69552;BMP280;63774;45.292;11.784;2023-06-26T02:59:10;101830.95;;;26.04
69552;BMP280;63774;45.292;11.784;2023-06-26T03:01:35;101829.99;;;26.00
69552;BMP280;63774;45.292;11.784;2023-06-26T03:04:00;101836.91;;;25.98
69552;BMP280;63774;45.292;11.784;2023-06-26T03:06:29;101841.73;;;25.97
69552;BMP280;63774;45.292;11.784;2023-06-26T03:08:54;101840.52;;;25.95
69552;BMP280;63774;45.292;11.784;2023-06-26T03:11:20;101841.58;;;25.92
69552;BMP280;63774;45.292;11.784;2023-06-26T03:13:45;101846.26;;;25.92
69552;BMP280;63774;45.292;11.784;2023-06-26T03:16:10;101845.39;;;25.92
69552;BMP280;63774;45.292;11.784;2023-06-26T03:18:36;101844.05;;;25.90
69552;BMP280;63774;45.292;11.784;2023-06-26T03:21:01;101842.45;;;25.89
69552;BMP280;63774;45.292;11.784;2023-06-26T03:23:27;101843.23;;;25.88
69552;BMP280;63774;45.292;11.784;2023-06-26T03:25:53;101845.61;;;25.87
69552;BMP280;63774;45.292;11.784;2023-06-26T03:28:18;101842.27;;;25.85
69552;BMP280;63774;45.292;11.784;2023-06-26T03:30:43;101840.10;;;25.83
69552;BMP280;63774;45.292;11.784;2023-06-26T03:33:09;101840.68;;;25.81
69552;BMP280;63774;45.292;11.784;2023-06-26T03:35:34;101846.22;;;25.81
69552;BMP280;63774;45.292;11.784;2023-06-26T03:38:01;101846.90;;;25.78
69552;BMP280;63774;45.292;11.784;2023-06-26T03:40:26;101843.77;;;25.74
69552;BMP280;63774;45.292;11.784;2023-06-26T03:42:52;101844.56;;;25.75
69552;BMP280;63774;45.292;11.784;2023-06-26T03:45:17;101849.86;;;25.73
69552;BMP280;63774;45.292;11.784;2023-06-26T03:47:45;101857.09;;;25.73
69552;BMP280;63774;45.292;11.784;2023-06-26T03:50:12;101861.02;;;25.72
69552;BMP280;63774;45.292;11.784;2023-06-26T03:52:38;101860.91;;;25.68
69552;BMP280;63774;45.292;11.784;2023-06-26T03:55:03;101857.33;;;25.68
69552;BMP280;63774;45.292;11.784;2023-06-26T03:57:29;101852.59;;;25.68
69552;BMP280;63774;45.292;11.784;2023-06-26T03:59:54;101849.10;;;25.67
69552;BMP280;63774;45.292;11.784;2023-06-26T04:02:20;101850.35;;;25.69
69552;BMP280;63774;45.292;11.784;2023-06-26T04:04:45;101852.03;;;25.71
69552;BMP280;63774;45.292;11.784;2023-06-26T04:07:10;101847.98;;;25.70
69552;BMP280;63774;45.292;11.784;2023-06-26T04:09:36;101853.38;;;25.70
69552;BMP280;63774;45.292;11.784;2023-06-26T04:12:02;101853.91;;;25.71
69552;BMP280;63774;45.292;11.784;2023-06-26T04:14:27;101856.06;;;25.73
69552;BMP280;63774;45.292;11.784;2023-06-26T04:16:53;101857.45;;;25.73
69552;BMP280;63774;45.292;11.784;2023-06-26T04:19:18;101857.88;;;25.73
69552;BMP280;63774;45.292;11.784;2023-06-26T04:21:44;101862.25;;;25.73
69552;BMP280;63774;45.292;11.784;2023-06-26T04:24:10;101863.44;;;25.74
69552;BMP280;63774;45.292;11.784;2023-06-26T04:26:35;101864.56;;;25.75
69552;BMP280;63774;45.292;11.784;2023-06-26T04:29:01;101864.45;;;25.75
69552;BMP280;63774;45.292;11.784;2023-06-26T04:31:27;101867.66;;;25.78
69552;BMP280;63774;45.292;11.784;2023-06-26T04:33:52;101867.98;;;25.78
69552;BMP280;63774;45.292;11.784;2023-06-26T04:36:20;101870.43;;;25.80
69552;BMP280;63774;45.292;11.784;2023-06-26T04:38:46;101870.63;;;25.80
69552;BMP280;63774;45.292;11.784;2023-06-26T04:41:13;101873.26;;;25.81
69552;BMP280;63774;45.292;11.784;2023-06-26T04:43:39;101873.35;;;25.83
69552;BMP280;63774;45.292;11.784;2023-06-26T04:46:05;101871.13;;;25.85
69552;BMP280;63774;45.292;11.784;2023-06-26T04:48:31;101872.89;;;25.87
69552;BMP280;63774;45.292;11.784;2023-06-26T04:50:57;101876.63;;;25.88
69552;BMP280;63774;45.292;11.784;2023-06-26T04:53:24;101875.23;;;25.91
69552;BMP280;63774;45.292;11.784;2023-06-26T04:55:50;101874.35;;;25.94
69552;BMP280;63774;45.292;11.784;2023-06-26T04:58:16;101874.86;;;25.96
69552;BMP280;63774;45.292;11.784;2023-06-26T05:00:41;101876.44;;;25.99
69552;BMP280;63774;45.292;11.784;2023-06-26T05:03:08;101876.00;;;26.03
69552;BMP280;63774;45.292;11.784;2023-06-26T05:05:34;101873.50;;;26.06
69552;BMP280;63774;45.292;11.784;2023-06-26T05:08:13;101874.81;;;26.08
69552;BMP280;63774;45.292;11.784;2023-06-26T05:10:38;101870.67;;;26.12
69552;BMP280;63774;45.292;11.784;2023-06-26T05:13:04;101866.84;;;26.15
69552;BMP280;63774;45.292;11.784;2023-06-26T05:15:29;101867.30;;;26.18
69552;BMP280;63774;45.292;11.784;2023-06-26T05:17:55;101869.00;;;26.21
69552;BMP280;63774;45.292;11.784;2023-06-26T05:20:20;101870.73;;;26.22
69552;BMP280;63774;45.292;11.784;2023-06-26T05:22:46;101875.12;;;26.26
69552;BMP280;63774;45.292;11.784;2023-06-26T05:25:12;101874.11;;;26.28
69552;BMP280;63774;45.292;11.784;2023-06-26T05:27:38;101870.04;;;26.28
69552;BMP280;63774;45.292;11.784;2023-06-26T05:30:04;101868.31;;;26.32
69552;BMP280;63774;45.292;11.784;2023-06-26T05:32:39;101868.63;;;26.34
69552;BMP280;63774;45.292;11.784;2023-06-26T05:35:06;101870.21;;;26.35
69552;BMP280;63774;45.292;11.784;2023-06-26T05:37:33;101873.89;;;26.39
69552;BMP280;63774;45.292;11.784;2023-06-26T05:39:59;101870.37;;;26.41
69552;BMP280;63774;45.292;11.784;2023-06-26T05:42:25;101871.17;;;26.44
69552;BMP280;63774;45.292;11.784;2023-06-26T05:44:51;101870.38;;;26.47
69552;BMP280;63774;45.292;11.784;2023-06-26T05:47:16;101867.92;;;26.49
69552;BMP280;63774;45.292;11.784;2023-06-26T05:49:41;101868.27;;;26.51
69552;BMP280;63774;45.292;11.784;2023-06-26T05:52:07;101866.07;;;26.54
69552;BMP280;63774;45.292;11.784;2023-06-26T05:54:33;101864.58;;;26.56
69552;BMP280;63774;45.292;11.784;2023-06-26T05:56:59;101869.18;;;26.58
69552;BMP280;63774;45.292;11.784;2023-06-26T05:59:26;101870.67;;;26.60
69552;BMP280;63774;45.292;11.784;2023-06-26T06:01:54;101875.29;;;26.64
69552;BMP280;63774;45.292;11.784;2023-06-26T06:04:20;101879.47;;;26.66
69552;BMP280;63774;45.292;11.784;2023-06-26T06:06:45;101880.50;;;26.68
69552;BMP280;63774;45.292;11.784;2023-06-26T06:09:10;101884.67;;;26.70
69552;BMP280;63774;45.292;11.784;2023-06-26T06:11:36;101881.46;;;26.70
69552;BMP280;63774;45.292;11.784;2023-06-26T06:14:02;101881.30;;;26.71
69552;BMP280;63774;45.292;11.784;2023-06-26T06:16:28;101882.28;;;26.76
69552;BMP280;63774;45.292;11.784;2023-06-26T06:18:54;101879.11;;;26.77
69552;BMP280;63774;45.292;11.784;2023-06-26T06:21:20;101880.30;;;26.79
69552;BMP280;63774;45.292;11.784;2023-06-26T06:23:46;101882.50;;;26.82
69552;BMP280;63774;45.292;11.784;2023-06-26T06:26:11;101883.39;;;26.84
69552;BMP280;63774;45.292;11.784;2023-06-26T06:28:38;101881.44;;;26.85
69552;BMP280;63774;45.292;11.784;2023-06-26T06:31:04;101879.31;;;26.87
69552;BMP280;63774;45.292;11.784;2023-06-26T06:33:30;101880.58;;;26.91
69552;BMP280;63774;45.292;11.784;2023-06-26T06:35:55;101876.89;;;26.94
69552;BMP280;63774;45.292;11.784;2023-06-26T06:38:21;101876.27;;;26.97
69552;BMP280;63774;45.292;11.784;2023-06-26T06:40:46;101876.63;;;26.99
69552;BMP280;63774;45.292;11.784;2023-06-26T06:43:11;101875.13;;;27.01
69552;BMP280;63774;45.292;11.784;2023-06-26T06:45:37;101873.69;;;27.02
69552;BMP280;63774;45.292;11.784;2023-06-26T06:48:04;101874.46;;;27.05
69552;BMP280;63774;45.292;11.784;2023-06-26T06:50:29;101872.45;;;27.07
69552;BMP280;63774;45.292;11.784;2023-06-26T06:52:55;101865.73;;;27.07
69552;BMP280;63774;45.292;11.784;2023-06-26T06:55:20;101866.03;;;27.10
69552;BMP280;63774;45.292;11.784;2023-06-26T06:57:46;101864.85;;;27.11
69552;BMP280;63774;45.292;11.784;2023-06-26T07:00:12;101864.98;;;27.13
69552;BMP280;63774;45.292;11.784;2023-06-26T07:02:41;101868.05;;;27.14
69552;BMP280;63774;45.292;11.784;2023-06-26T07:05:07;101867.86;;;27.15
69552;BMP280;63774;45.292;11.784;2023-06-26T07:07:33;101866.48;;;27.17
69552;BMP280;63774;45.292;11.784;2023-06-26T07:10:01;101868.25;;;27.18
69552;BMP280;63774;45.292;11.784;2023-06-26T07:12:27;101866.06;;;27.20
69552;BMP280;63774;45.292;11.784;2023-06-26T07:14:54;101862.19;;;27.22
69552;BMP280;63774;45.292;11.784;2023-06-26T07:17:20;101855.86;;;27.23
69552;BMP280;63774;45.292;11.784;2023-06-26T07:19:46;101858.98;;;27.25
69552;BMP280;63774;45.292;11.784;2023-06-26T07:22:12;101860.44;;;27.26
69552;BMP280;63774;45.292;11.784;2023-06-26T07:24:37;101861.77;;;27.27
69552;BMP280;63774;45.292;11.784;2023-06-26T07:27:03;101860.77;;;27.29
69552;BMP280;63774;45.292;11.784;2023-06-26T07:29:28;101859.52;;;27.30
69552;BMP280;63774;45.292;11.784;2023-06-26T07:31:54;101855.39;;;27.30
69552;BMP280;63774;45.292;11.784;2023-06-26T07:34:19;101856.22;;;27.31
69552;BMP280;63774;45.292;11.784;2023-06-26T07:36:45;101854.28;;;27.32
69552;BMP280;63774;45.292;11.784;2023-06-26T07:39:10;101854.84;;;27.34
69552;BMP280;63774;45.292;11.784;2023-06-26T07:41:35;101857.68;;;27.35
69552;BMP280;63774;45.292;11.784;2023-06-26T07:44:01;101858.61;;;27.36
69552;BMP280;63774;45.292;11.784;2023-06-26T07:46:26;101859.70;;;27.38
69552;BMP280;63774;45.292;11.784;2023-06-26T07:48:52;101858.89;;;27.38
69552;BMP280;63774;45.292;11.784;2023-06-26T07:51:18;101859.45;;;27.39
69552;BMP280;63774;45.292;11.784;2023-06-26T07:53:43;101856.85;;;27.40
69552;BMP280;63774;45.292;11.784;2023-06-26T07:56:09;101858.05;;;27.41
69552;BMP280;63774;45.292;11.784;2023-06-26T07:58:34;101860.60;;;27.43
69552;BMP280;63774;45.292;11.784;2023-06-26T08:01:00;101857.42;;;27.43
69552;BMP280;63774;45.292;11.784;2023-06-26T08:03:25;101860.14;;;27.44
69552;BMP280;63774;45.292;11.784;2023-06-26T08:05:51;101858.79;;;27.45
69552;BMP280;63774;45.292;11.784;2023-06-26T08:08:16;101856.33;;;27.46
69552;BMP280;63774;45.292;11.784;2023-06-26T08:10:42;101852.52;;;27.46
69552;BMP280;63774;45.292;11.784;2023-06-26T08:13:07;101851.09;;;27.46
69552;BMP280;63774;45.292;11.784;2023-06-26T08:15:33;101849.01;;;27.46
69552;BMP280;63774;45.292;11.784;2023-06-26T08:17:58;101847.30;;;27.47
69552;BMP280;63774;45.292;11.784;2023-06-26T08:20:24;101849.52;;;27.47
69552;BMP280;63774;45.292;11.784;2023-06-26T08:22:49;101848.14;;;27.48
69552;BMP280;63774;45.292;11.784;2023-06-26T08:25:17;101847.80;;;27.48
69552;BMP280;63774;45.292;11.784;2023-06-26T08:27:42;101847.30;;;27.49
69552;BMP280;63774;45.292;11.784;2023-06-26T08:30:08;101848.58;;;27.49
69552;BMP280;63774;45.292;11.784;2023-06-26T08:32:33;101845.19;;;27.50
69552;BMP280;63774;45.292;11.784;2023-06-26T08:34:59;101848.38;;;27.50
69552;BMP280;63774;45.292;11.784;2023-06-26T08:37:24;101850.23;;;27.51
69552;BMP280;63774;45.292;11.784;2023-06-26T08:39:50;101850.16;;;27.51
69552;BMP280;63774;45.292;11.784;2023-06-26T08:42:15;101848.52;;;27.51
69552;BMP280;63774;45.292;11.784;2023-06-26T08:44:41;101847.52;;;27.51
69552;BMP280;63774;45.292;11.784;2023-06-26T08:47:07;101847.04;;;27.54
69552;BMP280;63774;45.292;11.784;2023-06-26T08:52:22;101848.36;;;27.54
69552;BMP280;63774;45.292;11.784;2023-06-26T08:54:54;101842.96;;;27.54
69552;BMP280;63774;45.292;11.784;2023-06-26T08:57:22;101844.38;;;27.52
69552;BMP280;63774;45.292;11.784;2023-06-26T08:59:48;101844.44;;;27.51
69552;BMP280;63774;45.292;11.784;2023-06-26T09:02:15;101845.13;;;27.51
69552;BMP280;63774;45.292;11.784;2023-06-26T09:04:40;101839.84;;;27.50
69552;BMP280;63774;45.292;11.784;2023-06-26T09:07:06;101833.65;;;27.52
69552;BMP280;63774;45.292;11.784;2023-06-26T09:09:32;101830.86;;;27.51
69552;BMP280;63774;45.292;11.784;2023-06-26T09:11:57;101834.60;;;27.53
69552;BMP280;63774;45.292;11.784;2023-06-26T09:14:23;101833.77;;;27.52
69552;BMP280;63774;45.292;11.784;2023-06-26T09:16:49;101836.89;;;27.53
69552;BMP280;63774;45.292;11.784;2023-06-26T09:19:15;101833.27;;;27.52
69552;BMP280;63774;45.292;11.784;2023-06-26T09:21:42;101829.83;;;27.54
69552;BMP280;63774;45.292;11.784;2023-06-26T09:24:08;101828.98;;;27.56
69552;BMP280;63774;45.292;11.784;2023-06-26T09:26:36;101824.86;;;27.56
69552;BMP280;63774;45.292;11.784;2023-06-26T09:29:03;101821.86;;;27.58
69552;BMP280;63774;45.292;11.784;2023-06-26T09:31:28;101818.59;;;27.58
69552;BMP280;63774;45.292;11.784;2023-06-26T09:34:00;101818.38;;;27.56
69552;BMP280;63774;45.292;11.784;2023-06-26T09:36:30;101818.98;;;27.57
69552;BMP280;63774;45.292;11.784;2023-06-26T09:39:03;101819.87;;;27.57
69552;BMP280;63774;45.292;11.784;2023-06-26T09:41:30;101815.86;;;27.57
69552;BMP280;63774;45.292;11.784;2023-06-26T09:44:02;101813.30;;;27.59
69552;BMP280;63774;45.292;11.784;2023-06-26T09:46:29;101808.48;;;27.58
69552;BMP280;63774;45.292;11.784;2023-06-26T09:49:06;101806.26;;;27.60
69552;BMP280;63774;45.292;11.784;2023-06-26T09:51:33;101799.69;;;27.59
69552;BMP280;63774;45.292;11.784;2023-06-26T09:54:00;101794.95;;;27.60
69552;BMP280;63774;45.292;11.784;2023-06-26T09:56:27;101797.66;;;27.61
69552;BMP280;63774;45.292;11.784;2023-06-26T09:58:57;101795.21;;;27.61
69552;BMP280;63774;45.292;11.784;2023-06-26T10:01:24;101795.39;;;27.62
69552;BMP280;63774;45.292;11.784;2023-06-26T10:03:50;101788.58;;;27.64
69552;BMP280;63774;45.292;11.784;2023-06-26T10:06:22;101787.19;;;27.62
69552;BMP280;63774;45.292;11.784;2023-06-26T10:08:50;101782.78;;;27.63
69552;BMP280;63774;45.292;11.784;2023-06-26T10:11:19;101780.70;;;27.64
69552;BMP280;63774;45.292;11.784;2023-06-26T10:13:45;101779.95;;;27.64
69552;BMP280;63774;45.292;11.784;2023-06-26T10:16:17;101778.09;;;27.65
69552;BMP280;63774;45.292;11.784;2023-06-26T10:18:44;101775.45;;;27.67
69552;BMP280;63774;45.292;11.784;2023-06-26T10:21:11;101775.21;;;27.67
69552;BMP280;63774;45.292;11.784;2023-06-26T10:23:39;101774.31;;;27.69
69552;BMP280;63774;45.292;11.784;2023-06-26T10:26:06;101771.15;;;27.68
69552;BMP280;63774;45.292;11.784;2023-06-26T10:28:33;101773.80;;;27.69
69552;BMP280;63774;45.292;11.784;2023-06-26T10:31:01;101771.04;;;27.71
69552;BMP280;63774;45.292;11.784;2023-06-26T10:33:28;101771.17;;;27.70
69552;BMP280;63774;45.292;11.784;2023-06-26T10:36:12;101771.62;;;27.72
69552;BMP280;63774;45.292;11.784;2023-06-26T10:38:57;101772.95;;;27.71
69552;BMP280;63774;45.292;11.784;2023-06-26T10:41:24;101766.88;;;27.72
69552;BMP280;63774;45.292;11.784;2023-06-26T10:46:53;101768.07;;;27.73
69552;BMP280;63774;45.292;11.784;2023-06-26T10:49:25;101768.05;;;27.74
69552;BMP280;63774;45.292;11.784;2023-06-26T10:51:51;101762.70;;;27.74
69552;BMP280;63774;45.292;11.784;2023-06-26T10:54:19;101762.78;;;27.75
69552;BMP280;63774;45.292;11.784;2023-06-26T10:56:46;101761.02;;;27.74
69552;BMP280;63774;45.292;11.784;2023-06-26T10:59:20;101761.09;;;27.74
69552;BMP280;63774;45.292;11.784;2023-06-26T11:01:54;101760.06;;;27.76
69552;BMP280;63774;45.292;11.784;2023-06-26T11:04:36;101757.09;;;27.76
69552;BMP280;63774;45.292;11.784;2023-06-26T11:07:25;101755.36;;;27.76
69552;BMP280;63774;45.292;11.784;2023-06-26T11:15:02;101754.52;;;27.76
69552;BMP280;63774;45.292;11.784;2023-06-26T11:17:29;101750.70;;;27.76
69552;BMP280;63774;45.292;11.784;2023-06-26T11:19:54;101747.36;;;27.77
69552;BMP280;63774;45.292;11.784;2023-06-26T11:22:21;101750.65;;;27.77
69552;BMP280;63774;45.292;11.784;2023-06-26T11:24:49;101747.21;;;27.78
69552;BMP280;63774;45.292;11.784;2023-06-26T11:27:17;101744.67;;;27.78
69552;BMP280;63774;45.292;11.784;2023-06-26T11:29:48;101746.34;;;27.79
69552;BMP280;63774;45.292;11.784;2023-06-26T11:32:14;101743.63;;;27.80
69552;BMP280;63774;45.292;11.784;2023-06-26T11:34:39;101743.86;;;27.82
69552;BMP280;63774;45.292;11.784;2023-06-26T11:37:06;101743.52;;;27.82
69552;BMP280;63774;45.292;11.784;2023-06-26T11:39:33;101740.36;;;27.83
69552;BMP280;63774;45.292;11.784;2023-06-26T11:41:59;101735.86;;;27.84
69552;BMP280;63774;45.292;11.784;2023-06-26T11:44:29;101728.58;;;27.84
69552;BMP280;63774;45.292;11.784;2023-06-26T11:46:56;101729.83;;;27.84
69552;BMP280;63774;45.292;11.784;2023-06-26T11:49:24;101732.84;;;27.83
69552;BMP280;63774;45.292;11.784;2023-06-26T11:51:58;101729.04;;;27.83
69552;BMP280;63774;45.292;11.784;2023-06-26T11:54:30;101731.37;;;27.83
69552;BMP280;63774;45.292;11.784;2023-06-26T11:57:00;101725.48;;;27.85
69552;BMP280;63774;45.292;11.784;2023-06-26T11:59:40;101724.24;;;27.85
69552;BMP280;63774;45.292;11.784;2023-06-26T12:02:13;101725.46;;;27.86
69552;BMP280;63774;45.292;11.784;2023-06-26T12:04:43;101725.94;;;27.89
69552;BMP280;63774;45.292;11.784;2023-06-26T12:07:10;101723.62;;;27.89
69552;BMP280;63774;45.292;11.784;2023-06-26T12:09:41;101722.01;;;27.90
69552;BMP280;63774;45.292;11.784;2023-06-26T12:12:08;101722.23;;;27.90
69552;BMP280;63774;45.292;11.784;2023-06-26T12:14:34;101719.48;;;27.92
69552;BMP280;63774;45.292;11.784;2023-06-26T12:17:05;101717.02;;;27.93
69552;BMP280;63774;45.292;11.784;2023-06-26T12:19:30;101714.88;;;27.96
69552;BMP280;63774;45.292;11.784;2023-06-26T12:21:57;101709.56;;;27.99
69552;BMP280;63774;45.292;11.784;2023-06-26T12:24:23;101707.65;;;28.00
69552;BMP280;63774;45.292;11.784;2023-06-26T12:26:51;101707.83;;;27.99
69552;BMP280;63774;45.292;11.784;2023-06-26T12:29:19;101708.27;;;27.99
69552;BMP280;63774;45.292;11.784;2023-06-26T12:31:51;101707.27;;;28.00
69552;BMP280;63774;45.292;11.784;2023-06-26T12:34:19;101707.02;;;27.99
69552;BMP280;63774;45.292;11.784;2023-06-26T12:36:47;101705.52;;;28.00
69552;BMP280;63774;45.292;11.784;2023-06-26T12:39:17;101701.86;;;28.00
69552;BMP280;63774;45.292;11.784;2023-06-26T12:41:53;101700.66;;;28.02
69552;BMP280;63774;45.292;11.784;2023-06-26T12:44:20;101703.27;;;28.03
69552;BMP280;63774;45.292;11.784;2023-06-26T12:46:47;101704.96;;;28.04
69552;BMP280;63774;45.292;11.784;2023-06-26T12:49:13;101701.21;;;28.03
69552;BMP280;63774;45.292;11.784;2023-06-26T12:51:39;101706.02;;;28.04
69552;BMP280;63774;45.292;11.784;2023-06-26T12:54:05;101702.23;;;28.02
69552;BMP280;63774;45.292;11.784;2023-06-26T12:56:31;101698.89;;;28.02
69552;BMP280;63774;45.292;11.784;2023-06-26T12:58:56;101696.80;;;28.02
69552;BMP280;63774;45.292;11.784;2023-06-26T13:01:22;101694.08;;;28.01
69552;BMP280;63774;45.292;11.784;2023-06-26T13:03:50;101694.80;;;28.01
69552;BMP280;63774;45.292;11.784;2023-06-26T13:06:17;101690.20;;;28.01
69552;BMP280;63774;45.292;11.784;2023-06-26T13:08:42;101694.30;;;28.02
69552;BMP280;63774;45.292;11.784;2023-06-26T13:11:09;101692.55;;;28.03
69552;BMP280;63774;45.292;11.784;2023-06-26T13:13:34;101689.69;;;28.02
69552;BMP280;63774;45.292;11.784;2023-06-26T13:16:00;101688.84;;;28.01
69552;BMP280;63774;45.292;11.784;2023-06-26T13:18:25;101681.65;;;28.01
69552;BMP280;63774;45.292;11.784;2023-06-26T13:20:51;101679.56;;;28.01
69552;BMP280;63774;45.292;11.784;2023-06-26T13:23:16;101677.31;;;28.01
69552;BMP280;63774;45.292;11.784;2023-06-26T13:25:43;101675.91;;;28.00
69552;BMP280;63774;45.292;11.784;2023-06-26T13:28:09;101677.04;;;28.01
69552;BMP280;63774;45.292;11.784;2023-06-26T13:30:34;101678.59;;;28.01
69552;BMP280;63774;45.292;11.784;2023-06-26T13:32:59;101673.98;;;28.00
69552;BMP280;63774;45.292;11.784;2023-06-26T13:35:25;101671.23;;;28.01
69552;BMP280;63774;45.292;11.784;2023-06-26T13:37:50;101669.08;;;28.00
69552;BMP280;63774;45.292;11.784;2023-06-26T13:40:16;101665.02;;;28.00
69552;BMP280;63774;45.292;11.784;2023-06-26T13:42:41;101662.87;;;28.00
69552;BMP280;63774;45.292;11.784;2023-06-26T13:45:07;101660.20;;;28.01
69552;BMP280;63774;45.292;11.784;2023-06-26T13:47:33;101663.25;;;28.01
69552;BMP280;63774;45.292;11.784;2023-06-26T13:49:59;101660.60;;;28.01
69552;BMP280;63774;45.292;11.784;2023-06-26T13:52:25;101663.96;;;28.01
69552;BMP280;63774;45.292;11.784;2023-06-26T13:54:51;101663.17;;;28.00
69552;BMP280;63774;45.292;11.784;2023-06-26T13:57:16;101654.50;;;28.01